sensor_id;sensor_type;location;lat;lon;timestamp;P1;durP1;ratioP1;P2;durP2;ratioP2
14377;SDS011;7272;53.668;9.578;2023-05-10T00:01:19;2.77;;;2.27;;
14377;SDS011;7272;53.668;9.578;2023-05-10T00:04:21;3.53;;;2.50;;
14377;SDS011;7272;53.668;9.578;2023-05-10T00:07:22;2.50;;;2.30;;
14377;SDS011;7272;53.668;9.578;2023-05-10T00:10:23;2.70;;;2.50;;
14377;SDS011;7272;53.668;9.578;2023-05-10T00:13:24;3.50;;;2.50;;
14377;SDS011;7272;53.668;9.578;2023-05-10T00:16:26;2.75;;;2.53;;
14377;SDS011;7272;53.668;9.578;2023-05-10T00:19:27;2.70;;;2.50;;
14377;SDS011;7272;53.668;9.578;2023-05-10T00:22:28;3.20;;;2.87;;
14377;SDS011;7272;53.668;9.578;2023-05-10T00:25:29;4.53;;;2.70;;
14377;SDS011;7272;53.668;9.578;2023-05-10T00:28:31;2.63;;;2.40;;
14377;SDS011;7272;53.668;9.578;2023-05-10T00:31:32;3.07;;;2.47;;
14377;SDS011;7272;53.668;9.578;2023-05-10T00:34:34;4.47;;;2.43;;
14377;SDS011;7272;53.668;9.578;2023-05-10T00:37:35;2.70;;;2.50;;
14377;SDS011;7272;53.668;9.578;2023-05-10T00:40:36;3.83;;;2.70;;
14377;SDS011;7272;53.668;9.578;2023-05-10T00:43:40;3.97;;;2.63;;
14377;SDS011;7272;53.668;9.578;2023-05-10T00:46:42;2.90;;;2.70;;
14377;SDS011;7272;53.668;9.578;2023-05-10T00:49:43;3.17;;;2.87;;
14377;SDS011;7272;53.668;9.578;2023-05-10T00:52:46;2.80;;;2.60;;
14377;SDS011;7272;53.668;9.578;2023-05-10T00:55:47;3.33;;;2.77;;
14377;SDS011;7272;53.668;9.578;2023-05-10T00:58:48;3.00;;;2.70;;
14377;SDS011;7272;53.668;9.578;2023-05-10T01:01:50;3.03;;;2.70;;
14377;SDS011;7272;53.668;9.578;2023-05-10T01:04:52;3.10;;;2.70;;
14377;SDS011;7272;53.668;9.578;2023-05-10T01:07:54;3.63;;;3.22;;
14377;SDS011;7272;53.668;9.578;2023-05-10T01:10:56;3.60;;;3.30;;
14377;SDS011;7272;53.668;9.578;2023-05-10T01:13:58;3.40;;;3.10;;
14377;SDS011;7272;53.668;9.578;2023-05-10T01:17:00;2.83;;;2.63;;
14377;SDS011;7272;53.668;9.578;2023-05-10T01:20:02;3.00;;;2.70;;
14377;SDS011;7272;53.668;9.578;2023-05-10T01:23:11;3.57;;;2.90;;
14377;SDS011;7272;53.668;9.578;2023-05-10T01:30:19;3.47;;;3.17;;
14377;SDS011;7272;53.668;9.578;2023-05-10T01:33:44;3.63;;;3.20;;
14377;SDS011;7272;53.668;9.578;2023-05-10T01:36:51;3.72;;;3.50;;
14377;SDS011;7272;53.668;9.578;2023-05-10T01:39:58;3.50;;;3.10;;
14377;SDS011;7272;53.668;9.578;2023-05-10T01:43:02;3.40;;;3.10;;
14377;SDS011;7272;53.668;9.578;2023-05-10T01:46:07;3.57;;;3.27;;
14377;SDS011;7272;53.668;9.578;2023-05-10T01:49:15;3.90;;;3.40;;
14377;SDS011;7272;53.668;9.578;2023-05-10T01:52:22;4.57;;;3.23;;
14377;SDS011;7272;53.668;9.578;2023-05-10T01:55:32;3.30;;;3.10;;
14377;SDS011;7272;53.668;9.578;2023-05-10T01:58:35;4.15;;;3.75;;
14377;SDS011;7272;53.668;9.578;2023-05-10T02:01:40;4.20;;;3.80;;
14377;SDS011;7272;53.668;9.578;2023-05-10T02:04:45;5.17;;;3.87;;
14377;SDS011;7272;53.668;9.578;2023-05-10T02:07:48;3.53;;;3.23;;
14377;SDS011;7272;53.668;9.578;2023-05-10T02:10:51;3.73;;;3.40;;
14377;SDS011;7272;53.668;9.578;2023-05-10T02:13:56;3.70;;;3.40;;
14377;SDS011;7272;53.668;9.578;2023-05-10T02:17:02;4.53;;;4.07;;
14377;SDS011;7272;53.668;9.578;2023-05-10T02:20:06;3.67;;;3.37;;
14377;SDS011;7272;53.668;9.578;2023-05-10T02:23:08;3.80;;;3.50;;
14377;SDS011;7272;53.668;9.578;2023-05-10T02:26:11;4.07;;;3.57;;
14377;SDS011;7272;53.668;9.578;2023-05-10T02:29:14;4.07;;;3.67;;
14377;SDS011;7272;53.668;9.578;2023-05-10T02:32:17;3.70;;;3.40;;
14377;SDS011;7272;53.668;9.578;2023-05-10T02:35:19;4.73;;;4.33;;
14377;SDS011;7272;53.668;9.578;2023-05-10T02:38:23;4.77;;;3.57;;
14377;SDS011;7272;53.668;9.578;2023-05-10T02:41:25;4.10;;;3.63;;
14377;SDS011;7272;53.668;9.578;2023-05-10T02:44:28;4.10;;;3.80;;
14377;SDS011;7272;53.668;9.578;2023-05-10T02:47:31;4.47;;;4.03;;
14377;SDS011;7272;53.668;9.578;2023-05-10T02:50:33;3.87;;;3.57;;
14377;SDS011;7272;53.668;9.578;2023-05-10T02:53:36;3.60;;;3.30;;
14377;SDS011;7272;53.668;9.578;2023-05-10T02:56:40;4.80;;;4.30;;
14377;SDS011;7272;53.668;9.578;2023-05-10T02:59:47;3.83;;;3.37;;
14377;SDS011;7272;53.668;9.578;2023-05-10T03:02:49;6.83;;;3.90;;
14377;SDS011;7272;53.668;9.578;2023-05-10T03:05:51;4.27;;;3.50;;
14377;SDS011;7272;53.668;9.578;2023-05-10T03:08:55;3.63;;;3.30;;
14377;SDS011;7272;53.668;9.578;2023-05-10T03:12:00;3.80;;;3.50;;
14377;SDS011;7272;53.668;9.578;2023-05-10T03:15:07;4.10;;;3.70;;
14377;SDS011;7272;53.668;9.578;2023-05-10T03:18:15;3.97;;;3.60;;
14377;SDS011;7272;53.668;9.578;2023-05-10T03:21:22;4.45;;;3.90;;
14377;SDS011;7272;53.668;9.578;2023-05-10T03:24:29;3.93;;;3.60;;
14377;SDS011;7272;53.668;9.578;2023-05-10T03:27:34;3.90;;;3.20;;
14377;SDS011;7272;53.668;9.578;2023-05-10T03:30:37;3.90;;;3.30;;
14377;SDS011;7272;53.668;9.578;2023-05-10T03:33:45;3.87;;;3.27;;
14377;SDS011;7272;53.668;9.578;2023-05-10T03:36:48;4.53;;;3.73;;
14377;SDS011;7272;53.668;9.578;2023-05-10T03:39:49;3.77;;;3.47;;
14377;SDS011;7272;53.668;9.578;2023-05-10T03:42:51;7.63;;;3.70;;
14377;SDS011;7272;53.668;9.578;2023-05-10T03:45:52;3.80;;;3.40;;
14377;SDS011;7272;53.668;9.578;2023-05-10T03:48:54;4.15;;;3.75;;
14377;SDS011;7272;53.668;9.578;2023-05-10T03:51:56;3.93;;;3.63;;
14377;SDS011;7272;53.668;9.578;2023-05-10T03:54:57;4.40;;;3.60;;
14377;SDS011;7272;53.668;9.578;2023-05-10T03:57:58;3.73;;;3.43;;
14377;SDS011;7272;53.668;9.578;2023-05-10T04:01:00;8.23;;;3.73;;
14377;SDS011;7272;53.668;9.578;2023-05-10T04:04:01;3.93;;;3.63;;
14377;SDS011;7272;53.668;9.578;2023-05-10T04:07:05;3.87;;;3.40;;
14377;SDS011;7272;53.668;9.578;2023-05-10T04:10:07;4.67;;;3.40;;
14377;SDS011;7272;53.668;9.578;2023-05-10T04:13:09;3.77;;;3.40;;
14377;SDS011;7272;53.668;9.578;2023-05-10T04:16:10;3.70;;;3.27;;
14377;SDS011;7272;53.668;9.578;2023-05-10T04:19:11;4.80;;;4.40;;
14377;SDS011;7272;53.668;9.578;2023-05-10T04:22:13;4.47;;;3.83;;
14377;SDS011;7272;53.668;9.578;2023-05-10T04:25:14;4.03;;;3.47;;
14377;SDS011;7272;53.668;9.578;2023-05-10T04:28:15;4.40;;;3.63;;
14377;SDS011;7272;53.668;9.578;2023-05-10T04:31:16;4.30;;;3.63;;
14377;SDS011;7272;53.668;9.578;2023-05-10T04:34:17;4.50;;;4.10;;
14377;SDS011;7272;53.668;9.578;2023-05-10T04:37:21;4.90;;;3.33;;
14377;SDS011;7272;53.668;9.578;2023-05-10T04:40:23;4.37;;;3.90;;
14377;SDS011;7272;53.668;9.578;2023-05-10T04:43:24;3.60;;;3.30;;
14377;SDS011;7272;53.668;9.578;2023-05-10T04:46:25;4.23;;;3.83;;
14377;SDS011;7272;53.668;9.578;2023-05-10T04:49:26;4.23;;;3.63;;
14377;SDS011;7272;53.668;9.578;2023-05-10T04:52:28;3.70;;;3.40;;
14377;SDS011;7272;53.668;9.578;2023-05-10T04:55:29;4.07;;;3.60;;
14377;SDS011;7272;53.668;9.578;2023-05-10T04:58:31;3.70;;;3.40;;
14377;SDS011;7272;53.668;9.578;2023-05-10T05:01:32;4.43;;;3.83;;
14377;SDS011;7272;53.668;9.578;2023-05-10T05:04:33;3.90;;;3.60;;
14377;SDS011;7272;53.668;9.578;2023-05-10T05:07:35;4.63;;;3.97;;
14377;SDS011;7272;53.668;9.578;2023-05-10T05:10:36;4.80;;;4.40;;
14377;SDS011;7272;53.668;9.578;2023-05-10T05:13:37;5.00;;;4.60;;
14377;SDS011;7272;53.668;9.578;2023-05-10T05:16:38;5.07;;;3.80;;
14377;SDS011;7272;53.668;9.578;2023-05-10T05:19:40;4.27;;;3.83;;
14377;SDS011;7272;53.668;9.578;2023-05-10T05:22:41;4.40;;;4.00;;
14377;SDS011;7272;53.668;9.578;2023-05-10T05:25:43;5.97;;;4.03;;
14377;SDS011;7272;53.668;9.578;2023-05-10T05:28:44;3.67;;;3.37;;
14377;SDS011;7272;53.668;9.578;2023-05-10T05:31:45;4.23;;;3.70;;
14377;SDS011;7272;53.668;9.578;2023-05-10T05:34:46;4.70;;;4.30;;
14377;SDS011;7272;53.668;9.578;2023-05-10T05:37:48;5.00;;;4.50;;
14377;SDS011;7272;53.668;9.578;2023-05-10T05:40:49;4.35;;;4.00;;
14377;SDS011;7272;53.668;9.578;2023-05-10T05:43:50;4.60;;;4.20;;
14377;SDS011;7272;53.668;9.578;2023-05-10T05:46:51;4.50;;;4.10;;
14377;SDS011;7272;53.668;9.578;2023-05-10T05:49:52;4.23;;;3.80;;
14377;SDS011;7272;53.668;9.578;2023-05-10T05:52:54;4.07;;;3.67;;
14377;SDS011;7272;53.668;9.578;2023-05-10T05:55:57;4.07;;;3.67;;
14377;SDS011;7272;53.668;9.578;2023-05-10T05:58:59;4.27;;;3.87;;
14377;SDS011;7272;53.668;9.578;2023-05-10T06:02:00;4.37;;;3.90;;
14377;SDS011;7272;53.668;9.578;2023-05-10T06:05:01;3.93;;;3.43;;
14377;SDS011;7272;53.668;9.578;2023-05-10T06:08:03;4.50;;;4.07;;
14377;SDS011;7272;53.668;9.578;2023-05-10T06:11:04;4.75;;;4.35;;
14377;SDS011;7272;53.668;9.578;2023-05-10T06:14:06;4.60;;;4.20;;
14377;SDS011;7272;53.668;9.578;2023-05-10T06:17:07;4.27;;;3.87;;
14377;SDS011;7272;53.668;9.578;2023-05-10T06:20:09;4.00;;;3.70;;
14377;SDS011;7272;53.668;9.578;2023-05-10T06:23:12;4.23;;;3.87;;
14377;SDS011;7272;53.668;9.578;2023-05-10T06:26:13;4.20;;;3.90;;
14377;SDS011;7272;53.668;9.578;2023-05-10T06:29:14;4.30;;;3.70;;
14377;SDS011;7272;53.668;9.578;2023-05-10T06:32:15;4.57;;;3.60;;
14377;SDS011;7272;53.668;9.578;2023-05-10T06:35:17;4.13;;;3.83;;
14377;SDS011;7272;53.668;9.578;2023-05-10T06:38:19;4.55;;;4.15;;
14377;SDS011;7272;53.668;9.578;2023-05-10T06:41:20;4.40;;;4.00;;
14377;SDS011;7272;53.668;9.578;2023-05-10T06:44:21;4.87;;;4.37;;
14377;SDS011;7272;53.668;9.578;2023-05-10T06:47:22;4.00;;;3.60;;
14377;SDS011;7272;53.668;9.578;2023-05-10T06:50:24;4.17;;;3.87;;
14377;SDS011;7272;53.668;9.578;2023-05-10T06:53:26;4.03;;;3.63;;
14377;SDS011;7272;53.668;9.578;2023-05-10T06:56:27;3.87;;;3.57;;
14377;SDS011;7272;53.668;9.578;2023-05-10T06:59:28;4.73;;;4.20;;
14377;SDS011;7272;53.668;9.578;2023-05-10T07:02:29;4.35;;;3.95;;
14377;SDS011;7272;53.668;9.578;2023-05-10T07:05:31;4.38;;;4.05;;
14377;SDS011;7272;53.668;9.578;2023-05-10T07:08:33;4.23;;;3.77;;
14377;SDS011;7272;53.668;9.578;2023-05-10T07:11:34;4.40;;;3.50;;
14377;SDS011;7272;53.668;9.578;2023-05-10T07:14:35;5.53;;;3.87;;
14377;SDS011;7272;53.668;9.578;2023-05-10T07:17:36;3.90;;;3.60;;
14377;SDS011;7272;53.668;9.578;2023-05-10T07:20:37;4.50;;;4.10;;
14377;SDS011;7272;53.668;9.578;2023-05-10T07:23:39;4.67;;;3.40;;
14377;SDS011;7272;53.668;9.578;2023-05-10T07:26:40;6.73;;;3.60;;
14377;SDS011;7272;53.668;9.578;2023-05-10T07:29:42;4.47;;;4.07;;
14377;SDS011;7272;53.668;9.578;2023-05-10T07:32:43;4.53;;;4.13;;
14377;SDS011;7272;53.668;9.578;2023-05-10T07:35:44;4.00;;;3.70;;
14377;SDS011;7272;53.668;9.578;2023-05-10T07:38:46;4.07;;;3.67;;
14377;SDS011;7272;53.668;9.578;2023-05-10T07:41:48;4.33;;;3.93;;
14377;SDS011;7272;53.668;9.578;2023-05-10T07:44:49;4.20;;;3.80;;
14377;SDS011;7272;53.668;9.578;2023-05-10T07:47:51;4.30;;;3.93;;
14377;SDS011;7272;53.668;9.578;2023-05-10T07:50:52;4.17;;;3.70;;
14377;SDS011;7272;53.668;9.578;2023-05-10T07:53:54;4.57;;;4.17;;
14377;SDS011;7272;53.668;9.578;2023-05-10T07:56:55;3.70;;;3.40;;
14377;SDS011;7272;53.668;9.578;2023-05-10T07:59:56;4.03;;;3.73;;
14377;SDS011;7272;53.668;9.578;2023-05-10T08:02:57;5.13;;;4.70;;
14377;SDS011;7272;53.668;9.578;2023-05-10T08:05:58;4.10;;;3.80;;
14377;SDS011;7272;53.668;9.578;2023-05-10T08:09:00;8.30;;;4.07;;
14377;SDS011;7272;53.668;9.578;2023-05-10T08:12:01;4.10;;;3.67;;
14377;SDS011;7272;53.668;9.578;2023-05-10T08:15:03;4.67;;;4.27;;
14377;SDS011;7272;53.668;9.578;2023-05-10T08:18:05;4.33;;;4.03;;
14377;SDS011;7272;53.668;9.578;2023-05-10T08:21:06;5.63;;;5.00;;
14377;SDS011;7272;53.668;9.578;2023-05-10T08:24:08;4.97;;;4.57;;
14377;SDS011;7272;53.668;9.578;2023-05-10T08:27:09;5.38;;;4.88;;
14377;SDS011;7272;53.668;9.578;2023-05-10T08:30:11;4.60;;;4.20;;
14377;SDS011;7272;53.668;9.578;2023-05-10T08:33:13;5.15;;;4.75;;
14377;SDS011;7272;53.668;9.578;2023-05-10T08:36:14;4.90;;;4.40;;
14377;SDS011;7272;53.668;9.578;2023-05-10T08:39:22;5.07;;;4.60;;
14377;SDS011;7272;53.668;9.578;2023-05-10T08:42:24;5.47;;;4.73;;
14377;SDS011;7272;53.668;9.578;2023-05-10T08:45:29;5.10;;;4.70;;
14377;SDS011;7272;53.668;9.578;2023-05-10T08:48:33;4.80;;;4.40;;
14377;SDS011;7272;53.668;9.578;2023-05-10T08:51:36;4.87;;;4.57;;
14377;SDS011;7272;53.668;9.578;2023-05-10T08:54:41;5.80;;;5.30;;
14377;SDS011;7272;53.668;9.578;2023-05-10T08:57:42;6.30;;;5.80;;
14377;SDS011;7272;53.668;9.578;2023-05-10T09:00:43;5.20;;;4.80;;
14377;SDS011;7272;53.668;9.578;2023-05-10T09:03:45;5.73;;;4.80;;
14377;SDS011;7272;53.668;9.578;2023-05-10T09:06:47;5.50;;;5.10;;
14377;SDS011;7272;53.668;9.578;2023-05-10T09:09:49;5.37;;;4.87;;
14377;SDS011;7272;53.668;9.578;2023-05-10T09:12:51;5.50;;;5.10;;
14377;SDS011;7272;53.668;9.578;2023-05-10T09:15:53;6.00;;;5.40;;
14377;SDS011;7272;53.668;9.578;2023-05-10T09:18:54;4.70;;;4.37;;
14377;SDS011;7272;53.668;9.578;2023-05-10T09:21:56;5.90;;;5.50;;
14377;SDS011;7272;53.668;9.578;2023-05-10T09:25:05;7.18;;;6.57;;
14377;SDS011;7272;53.668;9.578;2023-05-10T09:28:07;6.40;;;5.80;;
14377;SDS011;7272;53.668;9.578;2023-05-10T09:31:09;6.33;;;5.83;;
14377;SDS011;7272;53.668;9.578;2023-05-10T09:34:10;6.40;;;5.90;;
14377;SDS011;7272;53.668;9.578;2023-05-10T09:37:11;5.67;;;5.27;;
14377;SDS011;7272;53.668;9.578;2023-05-10T09:40:14;6.23;;;5.63;;
14377;SDS011;7272;53.668;9.578;2023-05-10T09:43:16;5.87;;;5.33;;
14377;SDS011;7272;53.668;9.578;2023-05-10T09:46:17;7.83;;;7.23;;
14377;SDS011;7272;53.668;9.578;2023-05-10T09:49:18;8.20;;;7.60;;
14377;SDS011;7272;53.668;9.578;2023-05-10T09:52:21;7.60;;;7.00;;
14377;SDS011;7272;53.668;9.578;2023-05-10T09:55:23;6.63;;;6.13;;
14377;SDS011;7272;53.668;9.578;2023-05-10T09:58:25;7.10;;;6.60;;
14377;SDS011;7272;53.668;9.578;2023-05-10T10:01:26;6.53;;;5.93;;
14377;SDS011;7272;53.668;9.578;2023-05-10T10:04:28;7.30;;;6.70;;
14377;SDS011;7272;53.668;9.578;2023-05-10T10:07:29;6.60;;;6.10;;
14377;SDS011;7272;53.668;9.578;2023-05-10T10:10:32;6.50;;;6.10;;
14377;SDS011;7272;53.668;9.578;2023-05-10T10:13:34;8.73;;;8.02;;
14377;SDS011;7272;53.668;9.578;2023-05-10T10:16:35;8.30;;;7.70;;
14377;SDS011;7272;53.668;9.578;2023-05-10T10:19:36;7.60;;;7.00;;
14377;SDS011;7272;53.668;9.578;2023-05-10T10:22:37;6.57;;;5.73;;
14377;SDS011;7272;53.668;9.578;2023-05-10T10:25:39;7.83;;;7.13;;
14377;SDS011;7272;53.668;9.578;2023-05-10T10:28:43;7.33;;;6.83;;
14377;SDS011;7272;53.668;9.578;2023-05-10T10:31:55;8.37;;;7.70;;
14377;SDS011;7272;53.668;9.578;2023-05-10T10:35:09;7.03;;;6.53;;
14377;SDS011;7272;53.668;9.578;2023-05-10T10:38:11;7.47;;;6.87;;
14377;SDS011;7272;53.668;9.578;2023-05-10T10:41:26;8.33;;;7.70;;
14377;SDS011;7272;53.668;9.578;2023-05-10T10:44:36;9.90;;;9.20;;
14377;SDS011;7272;53.668;9.578;2023-05-10T10:47:38;8.23;;;7.60;;
14377;SDS011;7272;53.668;9.578;2023-05-10T10:50:43;8.53;;;7.93;;
14377;SDS011;7272;53.668;9.578;2023-05-10T10:53:45;8.03;;;7.37;;
14377;SDS011;7272;53.668;9.578;2023-05-10T10:56:59;7.13;;;6.53;;
14377;SDS011;7272;53.668;9.578;2023-05-10T11:00:18;7.47;;;6.97;;
14377;SDS011;7272;53.668;9.578;2023-05-10T11:03:27;8.93;;;8.03;;
14377;SDS011;7272;53.668;9.578;2023-05-10T11:06:29;10.52;;;9.73;;
14377;SDS011;7272;53.668;9.578;2023-05-10T11:09:36;10.52;;;9.63;;
14377;SDS011;7272;53.668;9.578;2023-05-10T11:12:50;8.90;;;8.20;;
14377;SDS011;7272;53.668;9.578;2023-05-10T11:15:52;8.17;;;7.57;;
14377;SDS011;7272;53.668;9.578;2023-05-10T11:18:57;8.87;;;8.17;;
14377;SDS011;7272;53.668;9.578;2023-05-10T11:22:11;7.83;;;7.23;;
14377;SDS011;7272;53.668;9.578;2023-05-10T11:25:14;9.07;;;8.33;;
14377;SDS011;7272;53.668;9.578;2023-05-10T11:28:17;9.73;;;8.93;;
14377;SDS011;7272;53.668;9.578;2023-05-10T11:31:19;9.50;;;8.80;;
14377;SDS011;7272;53.668;9.578;2023-05-10T11:34:24;8.67;;;7.97;;
14377;SDS011;7272;53.668;9.578;2023-05-10T11:37:28;10.57;;;9.88;;
14377;SDS011;7272;53.668;9.578;2023-05-10T11:40:32;9.40;;;8.70;;
14377;SDS011;7272;53.668;9.578;2023-05-10T11:43:34;8.17;;;7.57;;
14377;SDS011;7272;53.668;9.578;2023-05-10T11:46:38;9.43;;;8.53;;
14377;SDS011;7272;53.668;9.578;2023-05-10T11:49:39;9.23;;;8.33;;
14377;SDS011;7272;53.668;9.578;2023-05-10T11:52:44;8.83;;;8.13;;
14377;SDS011;7272;53.668;9.578;2023-05-10T11:55:45;8.63;;;8.03;;
14377;SDS011;7272;53.668;9.578;2023-05-10T11:58:52;9.43;;;8.73;;
14377;SDS011;7272;53.668;9.578;2023-05-10T12:01:54;8.63;;;7.93;;
14377;SDS011;7272;53.668;9.578;2023-05-10T12:04:56;8.83;;;8.20;;
14377;SDS011;7272;53.668;9.578;2023-05-10T12:08:10;8.37;;;7.67;;
14377;SDS011;7272;53.668;9.578;2023-05-10T12:11:12;8.60;;;7.90;;
14377;SDS011;7272;53.668;9.578;2023-05-10T12:14:16;8.40;;;7.70;;
14377;SDS011;7272;53.668;9.578;2023-05-10T12:17:17;9.00;;;8.30;;
14377;SDS011;7272;53.668;9.578;2023-05-10T12:20:19;9.70;;;9.00;;
14377;SDS011;7272;53.668;9.578;2023-05-10T12:23:21;8.80;;;8.10;;
14377;SDS011;7272;53.668;9.578;2023-05-10T12:26:22;8.70;;;8.00;;
14377;SDS011;7272;53.668;9.578;2023-05-10T12:29:25;10.90;;;10.10;;
14377;SDS011;7272;53.668;9.578;2023-05-10T12:32:40;9.00;;;8.30;;
14377;SDS011;7272;53.668;9.578;2023-05-10T12:35:45;8.70;;;8.00;;
14377;SDS011;7272;53.668;9.578;2023-05-10T12:38:47;9.13;;;8.43;;
14377;SDS011;7272;53.668;9.578;2023-05-10T12:41:48;8.70;;;8.10;;
14377;SDS011;7272;53.668;9.578;2023-05-10T12:44:50;8.57;;;7.90;;
14377;SDS011;7272;53.668;9.578;2023-05-10T12:47:55;8.90;;;8.30;;
14377;SDS011;7272;53.668;9.578;2023-05-10T12:50:57;8.97;;;8.37;;
14377;SDS011;7272;53.668;9.578;2023-05-10T12:53:58;11.98;;;11.13;;
14377;SDS011;7272;53.668;9.578;2023-05-10T12:56:59;9.77;;;9.07;;
14377;SDS011;7272;53.668;9.578;2023-05-10T13:00:01;9.40;;;8.70;;
14377;SDS011;7272;53.668;9.578;2023-05-10T13:03:03;9.43;;;8.73;;
14377;SDS011;7272;53.668;9.578;2023-05-10T13:06:05;9.33;;;8.53;;
14377;SDS011;7272;53.668;9.578;2023-05-10T13:09:06;9.97;;;9.27;;
14377;SDS011;7272;53.668;9.578;2023-05-10T13:12:07;9.43;;;8.70;;
14377;SDS011;7272;53.668;9.578;2023-05-10T13:15:10;9.55;;;8.88;;
14377;SDS011;7272;53.668;9.578;2023-05-10T13:18:11;9.30;;;8.70;;
14377;SDS011;7272;53.668;9.578;2023-05-10T13:21:15;11.67;;;10.97;;
14377;SDS011;7272;53.668;9.578;2023-05-10T13:24:16;9.30;;;8.60;;
14377;SDS011;7272;53.668;9.578;2023-05-10T13:27:17;9.33;;;8.63;;
14377;SDS011;7272;53.668;9.578;2023-05-10T13:30:19;9.67;;;8.97;;
14377;SDS011;7272;53.668;9.578;2023-05-10T13:33:21;11.07;;;10.20;;
14377;SDS011;7272;53.668;9.578;2023-05-10T13:36:22;9.03;;;8.37;;
14377;SDS011;7272;53.668;9.578;2023-05-10T13:39:23;8.97;;;8.27;;
14377;SDS011;7272;53.668;9.578;2023-05-10T13:42:24;12.68;;;11.77;;
14377;SDS011;7272;53.668;9.578;2023-05-10T13:45:26;12.10;;;11.30;;
14377;SDS011;7272;53.668;9.578;2023-05-10T13:48:27;9.67;;;8.87;;
14377;SDS011;7272;53.668;9.578;2023-05-10T13:51:29;11.03;;;10.23;;
14377;SDS011;7272;53.668;9.578;2023-05-10T13:54:31;9.40;;;8.70;;
14377;SDS011;7272;53.668;9.578;2023-05-10T13:57:33;10.77;;;10.00;;
14377;SDS011;7272;53.668;9.578;2023-05-10T14:00:36;11.00;;;10.20;;
14377;SDS011;7272;53.668;9.578;2023-05-10T14:03:37;10.90;;;10.10;;
14377;SDS011;7272;53.668;9.578;2023-05-10T14:06:38;12.52;;;11.63;;
14377;SDS011;7272;53.668;9.578;2023-05-10T14:09:40;12.15;;;11.35;;
14377;SDS011;7272;53.668;9.578;2023-05-10T14:12:41;8.13;;;7.53;;
14377;SDS011;7272;53.668;9.578;2023-05-10T14:15:43;10.50;;;9.70;;
14377;SDS011;7272;53.668;9.578;2023-05-10T14:18:44;9.47;;;8.63;;
14377;SDS011;7272;53.668;9.578;2023-05-10T14:21:45;10.20;;;9.40;;
14377;SDS011;7272;53.668;9.578;2023-05-10T14:24:46;10.83;;;10.03;;
14377;SDS011;7272;53.668;9.578;2023-05-10T14:27:47;9.03;;;8.33;;
14377;SDS011;7272;53.668;9.578;2023-05-10T14:30:49;11.45;;;10.75;;
14377;SDS011;7272;53.668;9.578;2023-05-10T14:33:51;11.95;;;11.15;;
14377;SDS011;7272;53.668;9.578;2023-05-10T14:36:53;9.37;;;8.77;;
14377;SDS011;7272;53.668;9.578;2023-05-10T14:39:55;8.90;;;8.30;;
14377;SDS011;7272;53.668;9.578;2023-05-10T14:42:56;9.33;;;8.63;;
14377;SDS011;7272;53.668;9.578;2023-05-10T14:45:58;8.90;;;8.30;;
14377;SDS011;7272;53.668;9.578;2023-05-10T14:49:00;9.23;;;8.63;;
14377;SDS011;7272;53.668;9.578;2023-05-10T14:52:01;8.60;;;7.90;;
14377;SDS011;7272;53.668;9.578;2023-05-10T14:55:03;12.90;;;12.00;;
14377;SDS011;7272;53.668;9.578;2023-05-10T14:58:05;10.80;;;10.10;;
14377;SDS011;7272;53.668;9.578;2023-05-10T15:01:07;8.33;;;7.83;;
14377;SDS011;7272;53.668;9.578;2023-05-10T15:04:08;8.87;;;8.27;;
14377;SDS011;7272;53.668;9.578;2023-05-10T15:07:10;8.53;;;7.93;;
14377;SDS011;7272;53.668;9.578;2023-05-10T15:10:14;8.53;;;7.93;;
14377;SDS011;7272;53.668;9.578;2023-05-10T15:13:15;8.73;;;8.13;;
14377;SDS011;7272;53.668;9.578;2023-05-10T15:16:17;9.53;;;8.77;;
14377;SDS011;7272;53.668;9.578;2023-05-10T15:19:19;10.87;;;10.10;;
14377;SDS011;7272;53.668;9.578;2023-05-10T15:22:20;13.07;;;12.18;;
14377;SDS011;7272;53.668;9.578;2023-05-10T15:25:22;10.23;;;9.43;;
14377;SDS011;7272;53.668;9.578;2023-05-10T15:28:23;9.17;;;8.57;;
14377;SDS011;7272;53.668;9.578;2023-05-10T15:31:25;9.13;;;8.53;;
14377;SDS011;7272;53.668;9.578;2023-05-10T15:34:27;8.73;;;8.13;;
14377;SDS011;7272;53.668;9.578;2023-05-10T15:37:29;8.50;;;7.90;;
14377;SDS011;7272;53.668;9.578;2023-05-10T15:40:30;10.53;;;9.77;;
14377;SDS011;7272;53.668;9.578;2023-05-10T15:43:31;10.68;;;9.98;;
14377;SDS011;7272;53.668;9.578;2023-05-10T15:46:33;8.70;;;8.10;;
14377;SDS011;7272;53.668;9.578;2023-05-10T15:49:34;7.30;;;6.77;;
14377;SDS011;7272;53.668;9.578;2023-05-10T15:52:36;6.77;;;6.27;;
14377;SDS011;7272;53.668;9.578;2023-05-10T15:55:37;6.63;;;6.13;;
14377;SDS011;7272;53.668;9.578;2023-05-10T15:58:39;6.57;;;6.17;;
14377;SDS011;7272;53.668;9.578;2023-05-10T16:01:42;6.53;;;6.03;;
14377;SDS011;7272;53.668;9.578;2023-05-10T16:04:43;6.90;;;6.50;;
14377;SDS011;7272;53.668;9.578;2023-05-10T16:07:44;3.28;;;3.00;;
14377;SDS011;7272;53.668;9.578;2023-05-10T16:10:46;2.30;;;2.20;;
14377;SDS011;7272;53.668;9.578;2023-05-10T16:13:48;2.17;;;2.07;;
14377;SDS011;7272;53.668;9.578;2023-05-10T16:16:50;2.37;;;2.27;;
14377;SDS011;7272;53.668;9.578;2023-05-10T16:19:51;2.33;;;2.23;;
14377;SDS011;7272;53.668;9.578;2023-05-10T16:22:52;2.30;;;2.20;;
14377;SDS011;7272;53.668;9.578;2023-05-10T16:25:53;2.70;;;2.60;;
14377;SDS011;7272;53.668;9.578;2023-05-10T16:28:55;3.07;;;2.87;;
14377;SDS011;7272;53.668;9.578;2023-05-10T16:31:56;6.18;;;5.78;;
14377;SDS011;7272;53.668;9.578;2023-05-10T16:34:59;6.20;;;5.80;;
14377;SDS011;7272;53.668;9.578;2023-05-10T16:38:00;6.90;;;6.40;;
14377;SDS011;7272;53.668;9.578;2023-05-10T16:41:01;7.37;;;6.87;;
14377;SDS011;7272;53.668;9.578;2023-05-10T16:44:02;7.13;;;6.63;;
14377;SDS011;7272;53.668;9.578;2023-05-10T16:47:04;7.30;;;6.70;;
14377;SDS011;7272;53.668;9.578;2023-05-10T16:50:06;8.75;;;8.15;;
14377;SDS011;7272;53.668;9.578;2023-05-10T16:53:08;9.32;;;8.73;;
14377;SDS011;7272;53.668;9.578;2023-05-10T16:56:10;8.20;;;7.60;;
14377;SDS011;7272;53.668;9.578;2023-05-10T16:59:12;8.10;;;7.50;;
14377;SDS011;7272;53.668;9.578;2023-05-10T17:02:13;10.93;;;6.33;;
14377;SDS011;7272;53.668;9.578;2023-05-10T17:05:15;7.30;;;6.77;;
14377;SDS011;7272;53.668;9.578;2023-05-10T17:08:16;7.80;;;7.20;;
14377;SDS011;7272;53.668;9.578;2023-05-10T17:11:17;7.43;;;6.83;;
14377;SDS011;7272;53.668;9.578;2023-05-10T17:14:19;8.15;;;7.55;;
14377;SDS011;7272;53.668;9.578;2023-05-10T17:17:20;6.70;;;6.20;;
14377;SDS011;7272;53.668;9.578;2023-05-10T17:20:22;5.70;;;5.30;;
14377;SDS011;7272;53.668;9.578;2023-05-10T17:23:23;5.83;;;5.20;;
14377;SDS011;7272;53.668;9.578;2023-05-10T17:26:25;5.37;;;4.97;;
14377;SDS011;7272;53.668;9.578;2023-05-10T17:29:27;5.67;;;5.17;;
14377;SDS011;7272;53.668;9.578;2023-05-10T17:32:28;5.97;;;5.43;;
14377;SDS011;7272;53.668;9.578;2023-05-10T17:35:29;6.37;;;5.80;;
14377;SDS011;7272;53.668;9.578;2023-05-10T17:38:31;6.60;;;6.10;;
14377;SDS011;7272;53.668;9.578;2023-05-10T17:41:32;7.73;;;7.07;;
14377;SDS011;7272;53.668;9.578;2023-05-10T17:44:33;6.83;;;6.27;;
14377;SDS011;7272;53.668;9.578;2023-05-10T17:47:35;6.47;;;6.00;;
14377;SDS011;7272;53.668;9.578;2023-05-10T17:50:37;6.10;;;5.60;;
14377;SDS011;7272;53.668;9.578;2023-05-10T17:53:41;4.97;;;4.57;;
14377;SDS011;7272;53.668;9.578;2023-05-10T17:56:42;4.97;;;4.50;;
14377;SDS011;7272;53.668;9.578;2023-05-10T17:59:43;4.57;;;4.28;;
14377;SDS011;7272;53.668;9.578;2023-05-10T18:02:45;3.83;;;3.60;;
14377;SDS011;7272;53.668;9.578;2023-05-10T18:05:46;3.03;;;2.83;;
14377;SDS011;7272;53.668;9.578;2023-05-10T18:08:48;2.70;;;2.50;;
14377;SDS011;7272;53.668;9.578;2023-05-10T18:11:49;3.07;;;2.87;;
14377;SDS011;7272;53.668;9.578;2023-05-10T18:14:50;2.90;;;2.70;;
14377;SDS011;7272;53.668;9.578;2023-05-10T18:17:52;2.40;;;2.30;;
14377;SDS011;7272;53.668;9.578;2023-05-10T18:20:54;3.30;;;3.10;;
14377;SDS011;7272;53.668;9.578;2023-05-10T18:23:56;2.95;;;2.80;;
14377;SDS011;7272;53.668;9.578;2023-05-10T18:26:58;3.00;;;2.80;;
14377;SDS011;7272;53.668;9.578;2023-05-10T18:29:59;3.30;;;3.15;;
14377;SDS011;7272;53.668;9.578;2023-05-10T18:33:01;3.00;;;2.90;;
14377;SDS011;7272;53.668;9.578;2023-05-10T18:36:02;2.63;;;2.53;;
14377;SDS011;7272;53.668;9.578;2023-05-10T18:39:04;3.20;;;2.90;;